This is the latest recevied weather packets stored in our database for station/object SP9TWP-3. If no packets are shown the sender has not sent any weather packets the latest 10 day(s).
| Time | Temp. | Humidity | Pressure | Rain* | Wind** | Luminosity | Snow |
|---|---|---|---|---|---|---|---|
| 1777824093 | 24.44° C | 24% | 1014.2 hPa | - | - | - | - |
| 1777823193 | 25° C | 24% | 1014.2 hPa | - | - | - | - |
| 1777822348 | 25° C | 24% | 1014.4 hPa | - | - | - | - |
| 1777822293 | 25° C | 24% | 1014.4 hPa | - | - | - | - |
| 1777821425 | 25° C | 22% | 1014.4 hPa | - | - | - | - |
| 1777821392 | 25° C | 22% | 1014.4 hPa | - | - | - | - |
| 1777820492 | 25° C | 22% | 1014.5 hPa | - | - | - | - |
| 1777819854 | 25.56° C | 21% | 1014.8 hPa | - | - | - | - |
| 1777819592 | 25.56° C | 21% | 1014.8 hPa | - | - | - | - |
| 1777818692 | 26.11° C | 19% | 1014.9 hPa | - | - | - | - |
| 1777817792 | 29.44° C | 17% | 1015.1 hPa | - | - | - | - |
| 1777817617 | 30° C | 15% | 1015.3 hPa | - | - | - | - |
| 1777817612 | 31.11° C | 14% | 1015.4 hPa | - | - | - | - |
| 1777816891 | 30° C | 15% | 1015.3 hPa | - | - | - | - |
| 1777815991 | 31.11° C | 14% | 1015.4 hPa | - | - | - | - |
| 1777815091 | 29.44° C | 16% | 1015.7 hPa | - | - | - | - |
| 1777814708 | 30° C | 15% | 1015.9 hPa | - | - | - | - |
| 1777814191 | 30° C | 15% | 1015.9 hPa | - | - | - | - |
| 1777813291 | 28.33° C | 18% | 1016 hPa | - | - | - | - |
| 1777812390 | 28.89° C | 18% | 1016.1 hPa | - | - | - | - |
| 1777811490 | 27.22° C | 19% | 1016.3 hPa | - | - | - | - |
| 1777810590 | 27.78° C | 19% | 1016.3 hPa | - | - | - | - |
| 1777809690 | 27.22° C | 20% | 1016.5 hPa | - | - | - | - |
| 1777808790 | 26.67° C | 21% | 1016.6 hPa | - | - | - | - |
| 1777807890 | 27.22° C | 22% | 1016.7 hPa | - | - | - | - |
* Rain since midnight (hover to see other rain measurements)
** Current wind speed in m/s (hover to see current wind gust speed)